sensor_id;sensor_type;location;lat;lon;timestamp;P1;durP1;ratioP1;P2;durP2;ratioP2
16531;SDS011;66872;63.142;14.482;2023-06-10T00:00:12;3.83;;;1.80;;
16531;SDS011;66872;63.142;14.482;2023-06-10T00:02:40;2.60;;;1.57;;
16531;SDS011;66872;63.142;14.482;2023-06-10T00:05:06;1.77;;;1.30;;
16531;SDS011;66872;63.142;14.482;2023-06-10T00:07:33;3.20;;;1.70;;
16531;SDS011;66872;63.142;14.482;2023-06-10T00:10:03;4.23;;;1.70;;
16531;SDS011;66872;63.142;14.482;2023-06-10T00:12:32;2.47;;;1.53;;
16531;SDS011;66872;63.142;14.482;2023-06-10T00:15:02;2.90;;;1.70;;
16531;SDS011;66872;63.142;14.482;2023-06-10T00:17:29;3.10;;;1.80;;
16531;SDS011;66872;63.142;14.482;2023-06-10T00:19:55;3.67;;;1.87;;
16531;SDS011;66872;63.142;14.482;2023-06-10T00:22:22;3.00;;;1.70;;
16531;SDS011;66872;63.142;14.482;2023-06-10T00:24:49;3.07;;;1.40;;
16531;SDS011;66872;63.142;14.482;2023-06-10T00:27:16;3.97;;;1.50;;
16531;SDS011;66872;63.142;14.482;2023-06-10T00:29:41;3.07;;;1.70;;
16531;SDS011;66872;63.142;14.482;2023-06-10T00:32:07;2.90;;;1.50;;
16531;SDS011;66872;63.142;14.482;2023-06-10T00:34:33;3.53;;;1.80;;
16531;SDS011;66872;63.142;14.482;2023-06-10T00:36:59;2.20;;;1.60;;
16531;SDS011;66872;63.142;14.482;2023-06-10T00:39:24;2.77;;;1.53;;
16531;SDS011;66872;63.142;14.482;2023-06-10T00:41:50;2.60;;;1.70;;
16531;SDS011;66872;63.142;14.482;2023-06-10T00:44:16;3.73;;;1.70;;
16531;SDS011;66872;63.142;14.482;2023-06-10T00:46:42;2.73;;;1.83;;
16531;SDS011;66872;63.142;14.482;2023-06-10T00:49:08;2.47;;;1.50;;
16531;SDS011;66872;63.142;14.482;2023-06-10T00:51:34;2.33;;;1.33;;
16531;SDS011;66872;63.142;14.482;2023-06-10T00:54:01;2.47;;;1.27;;
16531;SDS011;66872;63.142;14.482;2023-06-10T00:56:27;2.70;;;1.53;;
16531;SDS011;66872;63.142;14.482;2023-06-10T00:58:53;3.50;;;1.70;;
16531;SDS011;66872;63.142;14.482;2023-06-10T01:01:19;1.97;;;1.40;;
16531;SDS011;66872;63.142;14.482;2023-06-10T01:03:45;2.43;;;1.40;;
16531;SDS011;66872;63.142;14.482;2023-06-10T01:11:45;1.73;;;1.50;;
16531;SDS011;66872;63.142;14.482;2023-06-10T01:14:17;2.70;;;1.53;;
16531;SDS011;66872;63.142;14.482;2023-06-10T01:16:43;2.63;;;1.40;;
16531;SDS011;66872;63.142;14.482;2023-06-10T01:19:11;2.73;;;1.40;;
16531;SDS011;66872;63.142;14.482;2023-06-10T01:21:38;2.87;;;1.37;;
16531;SDS011;66872;63.142;14.482;2023-06-10T01:24:04;1.90;;;1.30;;
16531;SDS011;66872;63.142;14.482;2023-06-10T01:26:33;2.90;;;1.40;;
16531;SDS011;66872;63.142;14.482;2023-06-10T01:29:03;2.23;;;1.40;;
16531;SDS011;66872;63.142;14.482;2023-06-10T01:31:46;1.53;;;1.30;;
16531;SDS011;66872;63.142;14.482;2023-06-10T01:34:19;1.50;;;1.40;;
16531;SDS011;66872;63.142;14.482;2023-06-10T01:36:48;2.37;;;1.70;;
16531;SDS011;66872;63.142;14.482;2023-06-10T01:39:15;2.00;;;1.40;;
16531;SDS011;66872;63.142;14.482;2023-06-10T01:41:42;2.40;;;1.47;;
16531;SDS011;66872;63.142;14.482;2023-06-10T01:44:08;1.50;;;1.40;;
16531;SDS011;66872;63.142;14.482;2023-06-10T01:46:34;2.10;;;1.20;;
16531;SDS011;66872;63.142;14.482;2023-06-10T01:49:00;2.20;;;1.53;;
16531;SDS011;66872;63.142;14.482;2023-06-10T01:51:26;2.90;;;1.53;;
16531;SDS011;66872;63.142;14.482;2023-06-10T01:53:51;1.60;;;1.40;;
16531;SDS011;66872;63.142;14.482;2023-06-10T01:56:17;2.43;;;1.40;;
16531;SDS011;66872;63.142;14.482;2023-06-10T01:58:45;2.13;;;1.30;;
16531;SDS011;66872;63.142;14.482;2023-06-10T02:01:11;1.40;;;1.30;;
16531;SDS011;66872;63.142;14.482;2023-06-10T02:03:37;2.17;;;1.30;;
16531;SDS011;66872;63.142;14.482;2023-06-10T02:06:03;3.47;;;1.60;;
16531;SDS011;66872;63.142;14.482;2023-06-10T02:08:28;2.83;;;1.47;;
16531;SDS011;66872;63.142;14.482;2023-06-10T02:10:54;1.67;;;1.40;;
16531;SDS011;66872;63.142;14.482;2023-06-10T02:13:20;1.97;;;1.30;;
16531;SDS011;66872;63.142;14.482;2023-06-10T02:15:45;1.77;;;1.40;;
16531;SDS011;66872;63.142;14.482;2023-06-10T02:18:11;1.97;;;1.20;;
16531;SDS011;66872;63.142;14.482;2023-06-10T02:20:37;2.00;;;1.43;;
16531;SDS011;66872;63.142;14.482;2023-06-10T02:23:03;1.93;;;1.50;;
16531;SDS011;66872;63.142;14.482;2023-06-10T02:25:29;2.97;;;1.37;;
16531;SDS011;66872;63.142;14.482;2023-06-10T02:27:55;2.00;;;1.63;;
16531;SDS011;66872;63.142;14.482;2023-06-10T02:30:21;2.00;;;1.40;;
16531;SDS011;66872;63.142;14.482;2023-06-10T02:32:47;1.90;;;1.30;;
16531;SDS011;66872;63.142;14.482;2023-06-10T02:35:12;1.33;;;1.20;;
16531;SDS011;66872;63.142;14.482;2023-06-10T02:37:42;1.97;;;1.30;;
16531;SDS011;66872;63.142;14.482;2023-06-10T02:40:08;1.43;;;1.17;;
16531;SDS011;66872;63.142;14.482;2023-06-10T02:42:35;1.97;;;1.20;;
16531;SDS011;66872;63.142;14.482;2023-06-10T02:45:01;1.63;;;1.30;;
16531;SDS011;66872;63.142;14.482;2023-06-10T02:47:27;1.63;;;1.50;;
16531;SDS011;66872;63.142;14.482;2023-06-10T02:49:52;2.37;;;1.40;;
16531;SDS011;66872;63.142;14.482;2023-06-10T02:52:18;2.40;;;1.40;;
16531;SDS011;66872;63.142;14.482;2023-06-10T02:54:44;1.30;;;1.20;;
16531;SDS011;66872;63.142;14.482;2023-06-10T02:57:10;1.50;;;1.40;;
16531;SDS011;66872;63.142;14.482;2023-06-10T02:59:36;1.83;;;1.30;;
16531;SDS011;66872;63.142;14.482;2023-06-10T03:02:01;2.03;;;1.20;;
16531;SDS011;66872;63.142;14.482;2023-06-10T03:04:27;1.30;;;1.13;;
16531;SDS011;66872;63.142;14.482;2023-06-10T03:06:54;1.27;;;1.10;;
16531;SDS011;66872;63.142;14.482;2023-06-10T03:09:20;1.80;;;1.33;;
16531;SDS011;66872;63.142;14.482;2023-06-10T03:11:46;1.30;;;1.20;;
16531;SDS011;66872;63.142;14.482;2023-06-10T03:14:11;1.50;;;1.40;;
16531;SDS011;66872;63.142;14.482;2023-06-10T03:16:37;2.07;;;1.40;;
16531;SDS011;66872;63.142;14.482;2023-06-10T03:19:07;1.27;;;1.17;;
16531;SDS011;66872;63.142;14.482;2023-06-10T03:21:34;1.77;;;1.40;;
16531;SDS011;66872;63.142;14.482;2023-06-10T03:23:59;2.47;;;1.30;;
16531;SDS011;66872;63.142;14.482;2023-06-10T03:26:26;1.73;;;1.30;;
16531;SDS011;66872;63.142;14.482;2023-06-10T03:28:52;1.50;;;1.10;;
16531;SDS011;66872;63.142;14.482;2023-06-10T03:31:18;1.60;;;1.47;;
16531;SDS011;66872;63.142;14.482;2023-06-10T03:33:44;1.63;;;1.40;;
16531;SDS011;66872;63.142;14.482;2023-06-10T03:36:09;1.53;;;1.37;;
16531;SDS011;66872;63.142;14.482;2023-06-10T03:38:35;2.70;;;1.50;;
16531;SDS011;66872;63.142;14.482;2023-06-10T03:41:01;2.67;;;1.50;;
16531;SDS011;66872;63.142;14.482;2023-06-10T03:43:27;1.90;;;1.13;;
16531;SDS011;66872;63.142;14.482;2023-06-10T03:45:53;1.57;;;1.33;;
16531;SDS011;66872;63.142;14.482;2023-06-10T03:48:18;1.40;;;1.27;;
16531;SDS011;66872;63.142;14.482;2023-06-10T03:50:44;2.03;;;1.53;;
16531;SDS011;66872;63.142;14.482;2023-06-10T03:53:12;1.50;;;1.40;;
16531;SDS011;66872;63.142;14.482;2023-06-10T03:55:38;1.43;;;1.20;;
16531;SDS011;66872;63.142;14.482;2023-06-10T03:58:03;1.40;;;1.20;;
16531;SDS011;66872;63.142;14.482;2023-06-10T04:00:29;1.58;;;1.20;;
16531;SDS011;66872;63.142;14.482;2023-06-10T04:02:55;1.50;;;1.30;;
16531;SDS011;66872;63.142;14.482;2023-06-10T04:05:23;1.30;;;1.20;;
16531;SDS011;66872;63.142;14.482;2023-06-10T04:07:48;2.05;;;1.33;;
16531;SDS011;66872;63.142;14.482;2023-06-10T04:10:15;1.55;;;1.27;;
16531;SDS011;66872;63.142;14.482;2023-06-10T04:12:41;2.03;;;1.50;;
16531;SDS011;66872;63.142;14.482;2023-06-10T04:15:07;1.38;;;1.27;;
16531;SDS011;66872;63.142;14.482;2023-06-10T04:17:33;1.30;;;1.20;;
16531;SDS011;66872;63.142;14.482;2023-06-10T04:19:59;1.45;;;1.35;;
16531;SDS011;66872;63.142;14.482;2023-06-10T04:22:25;1.73;;;1.23;;
16531;SDS011;66872;63.142;14.482;2023-06-10T04:24:51;1.35;;;1.25;;
16531;SDS011;66872;63.142;14.482;2023-06-10T04:27:17;2.45;;;1.20;;
16531;SDS011;66872;63.142;14.482;2023-06-10T04:29:43;1.80;;;1.40;;
16531;SDS011;66872;63.142;14.482;2023-06-10T04:32:09;1.35;;;1.25;;
16531;SDS011;66872;63.142;14.482;2023-06-10T04:34:34;1.20;;;1.10;;
16531;SDS011;66872;63.142;14.482;2023-06-10T04:37:01;1.25;;;1.15;;
16531;SDS011;66872;63.142;14.482;2023-06-10T04:39:27;1.30;;;1.20;;
16531;SDS011;66872;63.142;14.482;2023-06-10T04:41:53;2.63;;;1.30;;
16531;SDS011;66872;63.142;14.482;2023-06-10T04:44:18;1.25;;;1.15;;
16531;SDS011;66872;63.142;14.482;2023-06-10T04:46:44;1.77;;;1.35;;
16531;SDS011;66872;63.142;14.482;2023-06-10T04:49:10;1.50;;;1.10;;
16531;SDS011;66872;63.142;14.482;2023-06-10T04:51:39;2.10;;;1.20;;
16531;SDS011;66872;63.142;14.482;2023-06-10T04:54:05;1.25;;;1.13;;
16531;SDS011;66872;63.142;14.482;2023-06-10T04:56:30;1.50;;;1.40;;
16531;SDS011;66872;63.142;14.482;2023-06-10T04:58:56;2.08;;;1.30;;
16531;SDS011;66872;63.142;14.482;2023-06-10T05:01:22;1.92;;;1.25;;
16531;SDS011;66872;63.142;14.482;2023-06-10T05:03:48;1.80;;;1.40;;
16531;SDS011;66872;63.142;14.482;2023-06-10T05:06:14;1.40;;;1.30;;
16531;SDS011;66872;63.142;14.482;2023-06-10T05:08:40;1.48;;;1.38;;
16531;SDS011;66872;63.142;14.482;2023-06-10T05:11:05;1.35;;;1.25;;
16531;SDS011;66872;63.142;14.482;2023-06-10T05:13:31;1.58;;;1.25;;
16531;SDS011;66872;63.142;14.482;2023-06-10T05:15:57;1.58;;;1.30;;
16531;SDS011;66872;63.142;14.482;2023-06-10T05:18:23;1.25;;;1.15;;
16531;SDS011;66872;63.142;14.482;2023-06-10T05:20:49;1.20;;;1.10;;
16531;SDS011;66872;63.142;14.482;2023-06-10T05:23:14;1.67;;;1.25;;
16531;SDS011;66872;63.142;14.482;2023-06-10T05:25:40;1.33;;;1.23;;
16531;SDS011;66872;63.142;14.482;2023-06-10T05:28:06;1.50;;;1.27;;
16531;SDS011;66872;63.142;14.482;2023-06-10T05:30:35;1.65;;;1.35;;
16531;SDS011;66872;63.142;14.482;2023-06-10T05:33:01;1.20;;;1.10;;
16531;SDS011;66872;63.142;14.482;2023-06-10T05:35:28;1.75;;;1.40;;
16531;SDS011;66872;63.142;14.482;2023-06-10T05:37:53;1.50;;;1.40;;
16531;SDS011;66872;63.142;14.482;2023-06-10T05:40:19;1.55;;;1.30;;
16531;SDS011;66872;63.142;14.482;2023-06-10T05:42:45;1.30;;;1.20;;
16531;SDS011;66872;63.142;14.482;2023-06-10T05:45:11;1.42;;;1.20;;
16531;SDS011;66872;63.142;14.482;2023-06-10T05:47:36;1.13;;;1.02;;
16531;SDS011;66872;63.142;14.482;2023-06-10T05:50:02;1.27;;;1.17;;
16531;SDS011;66872;63.142;14.482;2023-06-10T05:52:32;1.30;;;1.20;;
16531;SDS011;66872;63.142;14.482;2023-06-10T05:54:58;1.52;;;1.38;;
16531;SDS011;66872;63.142;14.482;2023-06-10T05:57:24;1.27;;;1.17;;
16531;SDS011;66872;63.142;14.482;2023-06-10T05:59:51;1.45;;;1.35;;
16531;SDS011;66872;63.142;14.482;2023-06-10T06:02:17;1.20;;;1.10;;
16531;SDS011;66872;63.142;14.482;2023-06-10T06:04:42;3.05;;;1.30;;
16531;SDS011;66872;63.142;14.482;2023-06-10T06:07:08;1.40;;;1.30;;
16531;SDS011;66872;63.142;14.482;2023-06-10T06:09:34;1.20;;;1.10;;
16531;SDS011;66872;63.142;14.482;2023-06-10T06:12:00;1.23;;;1.10;;
16531;SDS011;66872;63.142;14.482;2023-06-10T06:14:26;1.30;;;1.13;;
16531;SDS011;66872;63.142;14.482;2023-06-10T06:16:51;1.20;;;1.10;;
16531;SDS011;66872;63.142;14.482;2023-06-10T06:19:17;1.40;;;1.30;;
16531;SDS011;66872;63.142;14.482;2023-06-10T06:21:42;1.27;;;1.17;;
16531;SDS011;66872;63.142;14.482;2023-06-10T06:24:08;1.77;;;1.30;;
16531;SDS011;66872;63.142;14.482;2023-06-10T06:26:34;1.40;;;1.30;;
16531;SDS011;66872;63.142;14.482;2023-06-10T06:29:00;1.35;;;1.25;;
16531;SDS011;66872;63.142;14.482;2023-06-10T06:31:25;1.38;;;1.27;;
16531;SDS011;66872;63.142;14.482;2023-06-10T06:33:51;1.30;;;1.20;;
16531;SDS011;66872;63.142;14.482;2023-06-10T06:36:17;1.17;;;1.08;;
16531;SDS011;66872;63.142;14.482;2023-06-10T06:38:42;1.33;;;1.20;;
16531;SDS011;66872;63.142;14.482;2023-06-10T06:41:08;1.20;;;1.10;;
16531;SDS011;66872;63.142;14.482;2023-06-10T06:43:34;1.45;;;1.25;;
16531;SDS011;66872;63.142;14.482;2023-06-10T06:45:59;1.75;;;1.27;;
16531;SDS011;66872;63.142;14.482;2023-06-10T06:48:25;1.35;;;1.25;;
16531;SDS011;66872;63.142;14.482;2023-06-10T06:50:51;1.38;;;1.27;;
16531;SDS011;66872;63.142;14.482;2023-06-10T06:53:17;1.60;;;1.13;;
16531;SDS011;66872;63.142;14.482;2023-06-10T06:55:42;1.40;;;1.27;;
16531;SDS011;66872;63.142;14.482;2023-06-10T06:58:08;1.88;;;1.35;;
16531;SDS011;66872;63.142;14.482;2023-06-10T07:00:33;1.08;;;1.05;;
16531;SDS011;66872;63.142;14.482;2023-06-10T07:02:59;1.48;;;1.30;;
16531;SDS011;66872;63.142;14.482;2023-06-10T07:05:25;1.73;;;1.20;;
16531;SDS011;66872;63.142;14.482;2023-06-10T07:07:53;1.33;;;1.20;;
16531;SDS011;66872;63.142;14.482;2023-06-10T07:10:20;1.20;;;1.10;;
16531;SDS011;66872;63.142;14.482;2023-06-10T07:12:47;1.35;;;1.25;;
16531;SDS011;66872;63.142;14.482;2023-06-10T07:15:13;1.10;;;1.10;;
16531;SDS011;66872;63.142;14.482;2023-06-10T07:17:38;1.30;;;1.20;;
16531;SDS011;66872;63.142;14.482;2023-06-10T07:20:04;1.30;;;1.20;;
16531;SDS011;66872;63.142;14.482;2023-06-10T07:22:30;1.30;;;1.20;;
16531;SDS011;66872;63.142;14.482;2023-06-10T07:24:57;1.88;;;1.45;;
16531;SDS011;66872;63.142;14.482;2023-06-10T07:27:22;5.95;;;1.33;;
16531;SDS011;66872;63.142;14.482;2023-06-10T07:29:48;1.30;;;1.20;;
16531;SDS011;66872;63.142;14.482;2023-06-10T07:32:14;0.98;;;0.98;;
16531;SDS011;66872;63.142;14.482;2023-06-10T07:34:40;1.23;;;1.13;;
16531;SDS011;66872;63.142;14.482;2023-06-10T07:37:05;1.00;;;1.00;;
16531;SDS011;66872;63.142;14.482;2023-06-10T07:39:31;1.20;;;1.10;;
16531;SDS011;66872;63.142;14.482;2023-06-10T07:41:56;1.40;;;1.30;;
16531;SDS011;66872;63.142;14.482;2023-06-10T07:44:22;1.30;;;1.20;;
16531;SDS011;66872;63.142;14.482;2023-06-10T07:46:48;1.27;;;1.17;;
16531;SDS011;66872;63.142;14.482;2023-06-10T07:49:14;1.10;;;1.00;;
16531;SDS011;66872;63.142;14.482;2023-06-10T07:51:40;1.27;;;1.17;;
16531;SDS011;66872;63.142;14.482;2023-06-10T07:54:05;1.40;;;1.30;;
16531;SDS011;66872;63.142;14.482;2023-06-10T07:56:31;1.30;;;1.20;;
16531;SDS011;66872;63.142;14.482;2023-06-10T07:58:57;1.75;;;1.30;;
16531;SDS011;66872;63.142;14.482;2023-06-10T08:01:23;1.40;;;1.30;;
16531;SDS011;66872;63.142;14.482;2023-06-10T08:03:49;1.20;;;1.10;;
16531;SDS011;66872;63.142;14.482;2023-06-10T08:06:15;6.13;;;1.15;;
16531;SDS011;66872;63.142;14.482;2023-06-10T08:08:42;1.00;;;1.00;;
16531;SDS011;66872;63.142;14.482;2023-06-10T08:11:10;1.35;;;1.15;;
16531;SDS011;66872;63.142;14.482;2023-06-10T08:13:36;2.22;;;1.08;;
16531;SDS011;66872;63.142;14.482;2023-06-10T08:16:02;1.30;;;1.20;;
16531;SDS011;66872;63.142;14.482;2023-06-10T08:18:28;2.83;;;1.30;;
16531;SDS011;66872;63.142;14.482;2023-06-10T08:20:54;2.83;;;1.30;;
16531;SDS011;66872;63.142;14.482;2023-06-10T08:23:20;2.88;;;1.35;;
16531;SDS011;66872;63.142;14.482;2023-06-10T08:25:46;1.65;;;1.40;;
16531;SDS011;66872;63.142;14.482;2023-06-10T08:28:11;1.92;;;1.25;;
16531;SDS011;66872;63.142;14.482;2023-06-10T08:30:37;1.90;;;1.27;;
16531;SDS011;66872;63.142;14.482;2023-06-10T08:33:03;1.52;;;1.40;;
16531;SDS011;66872;63.142;14.482;2023-06-10T08:35:28;1.02;;;1.00;;
16531;SDS011;66872;63.142;14.482;2023-06-10T08:37:54;2.05;;;1.20;;
16531;SDS011;66872;63.142;14.482;2023-06-10T08:40:20;9.77;;;1.25;;
16531;SDS011;66872;63.142;14.482;2023-06-10T08:42:50;1.25;;;1.15;;
16531;SDS011;66872;63.142;14.482;2023-06-10T08:45:29;1.30;;;1.20;;
16531;SDS011;66872;63.142;14.482;2023-06-10T08:48:00;1.63;;;1.30;;
16531;SDS011;66872;63.142;14.482;2023-06-10T08:50:37;1.83;;;1.30;;
16531;SDS011;66872;63.142;14.482;2023-06-10T08:53:06;1.40;;;1.30;;
16531;SDS011;66872;63.142;14.482;2023-06-10T08:55:33;2.15;;;1.30;;
16531;SDS011;66872;63.142;14.482;2023-06-10T08:58:03;2.00;;;1.40;;
16531;SDS011;66872;63.142;14.482;2023-06-10T09:00:29;1.25;;;1.13;;
16531;SDS011;66872;63.142;14.482;2023-06-10T09:02:57;1.20;;;1.10;;
16531;SDS011;66872;63.142;14.482;2023-06-10T09:05:23;1.23;;;1.13;;
16531;SDS011;66872;63.142;14.482;2023-06-10T09:07:51;1.30;;;1.20;;
16531;SDS011;66872;63.142;14.482;2023-06-10T09:10:17;1.50;;;1.40;;
16531;SDS011;66872;63.142;14.482;2023-06-10T09:12:43;1.30;;;1.20;;
16531;SDS011;66872;63.142;14.482;2023-06-10T09:15:09;1.15;;;1.05;;
16531;SDS011;66872;63.142;14.482;2023-06-10T09:17:37;1.20;;;1.10;;
16531;SDS011;66872;63.142;14.482;2023-06-10T09:20:06;1.55;;;1.30;;
16531;SDS011;66872;63.142;14.482;2023-06-10T09:22:32;1.38;;;1.27;;
16531;SDS011;66872;63.142;14.482;2023-06-10T09:25:02;1.65;;;1.20;;
16531;SDS011;66872;63.142;14.482;2023-06-10T09:27:50;2.95;;;1.10;;
16531;SDS011;66872;63.142;14.482;2023-06-10T09:30:29;1.30;;;1.20;;
16531;SDS011;66872;63.142;14.482;2023-06-10T09:32:57;1.70;;;1.45;;
16531;SDS011;66872;63.142;14.482;2023-06-10T09:35:27;1.20;;;1.10;;
16531;SDS011;66872;63.142;14.482;2023-06-10T09:37:58;1.42;;;1.33;;
16531;SDS011;66872;63.142;14.482;2023-06-10T09:40:24;1.30;;;1.20;;
16531;SDS011;66872;63.142;14.482;2023-06-10T09:42:54;1.30;;;1.20;;
16531;SDS011;66872;63.142;14.482;2023-06-10T09:45:21;1.42;;;1.30;;
16531;SDS011;66872;63.142;14.482;2023-06-10T09:47:51;1.25;;;1.10;;
16531;SDS011;66872;63.142;14.482;2023-06-10T09:50:20;1.35;;;1.25;;
16531;SDS011;66872;63.142;14.482;2023-06-10T09:52:46;1.63;;;1.33;;
16531;SDS011;66872;63.142;14.482;2023-06-10T09:55:13;1.40;;;1.30;;
16531;SDS011;66872;63.142;14.482;2023-06-10T09:57:39;1.85;;;1.25;;
16531;SDS011;66872;63.142;14.482;2023-06-10T10:00:07;1.25;;;1.15;;
16531;SDS011;66872;63.142;14.482;2023-06-10T10:02:43;1.25;;;1.10;;
16531;SDS011;66872;63.142;14.482;2023-06-10T10:05:16;1.50;;;1.40;;
16531;SDS011;66872;63.142;14.482;2023-06-10T10:07:44;1.50;;;1.40;;
16531;SDS011;66872;63.142;14.482;2023-06-10T10:10:11;1.50;;;1.38;;
16531;SDS011;66872;63.142;14.482;2023-06-10T10:12:39;1.40;;;1.30;;
16531;SDS011;66872;63.142;14.482;2023-06-10T10:15:06;1.83;;;1.50;;
16531;SDS011;66872;63.142;14.482;2023-06-10T10:18:33;1.50;;;1.40;;
16531;SDS011;66872;63.142;14.482;2023-06-10T10:20:46;1.92;;;1.70;;
16531;SDS011;66872;63.142;14.482;2023-06-10T10:23:16;1.50;;;1.40;;
16531;SDS011;66872;63.142;14.482;2023-06-10T10:25:49;1.63;;;1.52;;
16531;SDS011;66872;63.142;14.482;2023-06-10T10:28:18;1.60;;;1.50;;
16531;SDS011;66872;63.142;14.482;2023-06-10T10:30:47;1.70;;;1.55;;
16531;SDS011;66872;63.142;14.482;2023-06-10T10:35:45;1.90;;;1.60;;
16531;SDS011;66872;63.142;14.482;2023-06-10T10:38:11;1.30;;;1.20;;
16531;SDS011;66872;63.142;14.482;2023-06-10T10:40:37;1.58;;;1.48;;
16531;SDS011;66872;63.142;14.482;2023-06-10T10:43:04;2.05;;;1.85;;
16531;SDS011;66872;63.142;14.482;2023-06-10T10:45:32;1.63;;;1.50;;
16531;SDS011;66872;63.142;14.482;2023-06-10T10:47:59;1.50;;;1.40;;
16531;SDS011;66872;63.142;14.482;2023-06-10T10:50:34;1.70;;;1.60;;
16531;SDS011;66872;63.142;14.482;2023-06-10T10:53:00;2.38;;;1.60;;
16531;SDS011;66872;63.142;14.482;2023-06-10T10:55:27;1.90;;;1.67;;
16531;SDS011;66872;63.142;14.482;2023-06-10T10:58:03;1.85;;;1.70;;
16531;SDS011;66872;63.142;14.482;2023-06-10T11:00:31;1.80;;;1.70;;
16531;SDS011;66872;63.142;14.482;2023-06-10T11:02:59;1.90;;;1.80;;
16531;SDS011;66872;63.142;14.482;2023-06-10T11:05:32;1.70;;;1.60;;
16531;SDS011;66872;63.142;14.482;2023-06-10T11:08:05;2.03;;;1.83;;
16531;SDS011;66872;63.142;14.482;2023-06-10T11:10:36;2.50;;;1.85;;
16531;SDS011;66872;63.142;14.482;2023-06-10T11:13:36;1.70;;;1.60;;
16531;SDS011;66872;63.142;14.482;2023-06-10T11:15:58;1.80;;;1.70;;
16531;SDS011;66872;63.142;14.482;2023-06-10T11:18:27;1.70;;;1.60;;
16531;SDS011;66872;63.142;14.482;2023-06-10T11:28:38;2.10;;;1.90;;
16531;SDS011;66872;63.142;14.482;2023-06-10T11:31:04;1.90;;;1.73;;
16531;SDS011;66872;63.142;14.482;2023-06-10T11:33:30;2.30;;;2.00;;
16531;SDS011;66872;63.142;14.482;2023-06-10T11:35:57;2.58;;;1.67;;
16531;SDS011;66872;63.142;14.482;2023-06-10T11:38:25;1.67;;;1.58;;
16531;SDS011;66872;63.142;14.482;2023-06-10T11:40:52;1.73;;;1.63;;
16531;SDS011;66872;63.142;14.482;2023-06-10T11:43:17;2.05;;;1.85;;
16531;SDS011;66872;63.142;14.482;2023-06-10T11:45:44;2.15;;;2.05;;
16531;SDS011;66872;63.142;14.482;2023-06-10T11:48:10;1.80;;;1.70;;
16531;SDS011;66872;63.142;14.482;2023-06-10T11:50:37;1.85;;;1.70;;
16531;SDS011;66872;63.142;14.482;2023-06-10T11:53:03;1.70;;;1.60;;
16531;SDS011;66872;63.142;14.482;2023-06-10T11:58:19;1.80;;;1.70;;
16531;SDS011;66872;63.142;14.482;2023-06-10T12:00:53;2.05;;;1.85;;
16531;SDS011;66872;63.142;14.482;2023-06-10T12:03:21;2.50;;;1.80;;
16531;SDS011;66872;63.142;14.482;2023-06-10T12:06:00;2.03;;;1.90;;
16531;SDS011;66872;63.142;14.482;2023-06-10T12:08:30;1.85;;;1.75;;
16531;SDS011;66872;63.142;14.482;2023-06-10T12:10:56;1.92;;;1.75;;
16531;SDS011;66872;63.142;14.482;2023-06-10T12:13:23;1.70;;;1.60;;
16531;SDS011;66872;63.142;14.482;2023-06-10T12:15:52;1.75;;;1.65;;
16531;SDS011;66872;63.142;14.482;2023-06-10T12:18:22;2.17;;;1.77;;
16531;SDS011;66872;63.142;14.482;2023-06-10T12:20:48;2.13;;;1.90;;
16531;SDS011;66872;63.142;14.482;2023-06-10T12:23:16;2.00;;;1.80;;
16531;SDS011;66872;63.142;14.482;2023-06-10T12:25:49;2.10;;;1.58;;
16531;SDS011;66872;63.142;14.482;2023-06-10T12:28:26;1.83;;;1.73;;
16531;SDS011;66872;63.142;14.482;2023-06-10T12:31:05;1.80;;;1.70;;
16531;SDS011;66872;63.142;14.482;2023-06-10T12:33:34;1.77;;;1.67;;
16531;SDS011;66872;63.142;14.482;2023-06-10T12:36:00;2.22;;;1.80;;
16531;SDS011;66872;63.142;14.482;2023-06-10T12:38:26;1.85;;;1.75;;
16531;SDS011;66872;63.142;14.482;2023-06-10T12:40:54;1.80;;;1.70;;
16531;SDS011;66872;63.142;14.482;2023-06-10T12:43:27;1.75;;;1.65;;
16531;SDS011;66872;63.142;14.482;2023-06-10T12:45:53;1.70;;;1.60;;
16531;SDS011;66872;63.142;14.482;2023-06-10T12:50:53;2.17;;;1.70;;
16531;SDS011;66872;63.142;14.482;2023-06-10T12:53:23;2.00;;;1.63;;
16531;SDS011;66872;63.142;14.482;2023-06-10T12:55:50;1.60;;;1.50;;
16531;SDS011;66872;63.142;14.482;2023-06-10T12:58:15;1.90;;;1.70;;
16531;SDS011;66872;63.142;14.482;2023-06-10T13:00:41;1.83;;;1.60;;
16531;SDS011;66872;63.142;14.482;2023-06-10T13:03:08;1.90;;;1.80;;
16531;SDS011;66872;63.142;14.482;2023-06-10T13:05:35;1.73;;;1.63;;
16531;SDS011;66872;63.142;14.482;2023-06-10T13:08:05;1.90;;;1.80;;
16531;SDS011;66872;63.142;14.482;2023-06-10T13:10:32;2.10;;;1.90;;
16531;SDS011;66872;63.142;14.482;2023-06-10T13:12:59;1.80;;;1.70;;
16531;SDS011;66872;63.142;14.482;2023-06-10T13:15:25;1.80;;;1.70;;
16531;SDS011;66872;63.142;14.482;2023-06-10T13:17:51;2.00;;;1.67;;
16531;SDS011;66872;63.142;14.482;2023-06-10T13:20:17;2.03;;;1.92;;
16531;SDS011;66872;63.142;14.482;2023-06-10T13:22:44;1.90;;;1.80;;
16531;SDS011;66872;63.142;14.482;2023-06-10T13:25:10;1.70;;;1.60;;
16531;SDS011;66872;63.142;14.482;2023-06-10T13:27:36;1.80;;;1.70;;
16531;SDS011;66872;63.142;14.482;2023-06-10T13:30:08;1.88;;;1.77;;
16531;SDS011;66872;63.142;14.482;2023-06-10T13:32:36;1.90;;;1.70;;
16531;SDS011;66872;63.142;14.482;2023-06-10T13:35:02;1.80;;;1.70;;
16531;SDS011;66872;63.142;14.482;2023-06-10T13:37:28;2.05;;;1.90;;
16531;SDS011;66872;63.142;14.482;2023-06-10T13:39:54;2.00;;;1.80;;
16531;SDS011;66872;63.142;14.482;2023-06-10T13:42:20;1.90;;;1.80;;
16531;SDS011;66872;63.142;14.482;2023-06-10T13:44:46;2.00;;;1.80;;
16531;SDS011;66872;63.142;14.482;2023-06-10T13:47:13;1.65;;;1.55;;
16531;SDS011;66872;63.142;14.482;2023-06-10T13:49:40;1.70;;;1.60;;
16531;SDS011;66872;63.142;14.482;2023-06-10T13:52:06;1.83;;;1.73;;
16531;SDS011;66872;63.142;14.482;2023-06-10T13:54:33;1.80;;;1.70;;
16531;SDS011;66872;63.142;14.482;2023-06-10T13:57:01;2.35;;;1.83;;
16531;SDS011;66872;63.142;14.482;2023-06-10T13:59:27;2.17;;;1.98;;
16531;SDS011;66872;63.142;14.482;2023-06-10T14:01:52;1.70;;;1.60;;
16531;SDS011;66872;63.142;14.482;2023-06-10T14:04:18;1.80;;;1.70;;
16531;SDS011;66872;63.142;14.482;2023-06-10T14:06:44;2.17;;;1.85;;
16531;SDS011;66872;63.142;14.482;2023-06-10T14:09:10;1.80;;;1.70;;
16531;SDS011;66872;63.142;14.482;2023-06-10T14:11:37;1.90;;;1.80;;
16531;SDS011;66872;63.142;14.482;2023-06-10T14:14:03;2.08;;;1.80;;
16531;SDS011;66872;63.142;14.482;2023-06-10T14:16:28;1.88;;;1.77;;
16531;SDS011;66872;63.142;14.482;2023-06-10T14:18:54;1.70;;;1.60;;
16531;SDS011;66872;63.142;14.482;2023-06-10T14:21:20;1.70;;;1.60;;
16531;SDS011;66872;63.142;14.482;2023-06-10T14:23:46;1.83;;;1.73;;
16531;SDS011;66872;63.142;14.482;2023-06-10T14:26:13;1.90;;;1.80;;
16531;SDS011;66872;63.142;14.482;2023-06-10T14:28:40;1.98;;;1.88;;
16531;SDS011;66872;63.142;14.482;2023-06-10T14:31:05;1.80;;;1.70;;
16531;SDS011;66872;63.142;14.482;2023-06-10T14:33:32;1.88;;;1.77;;
16531;SDS011;66872;63.142;14.482;2023-06-10T14:35:58;2.25;;;2.05;;
16531;SDS011;66872;63.142;14.482;2023-06-10T14:38:23;1.90;;;1.80;;
16531;SDS011;66872;63.142;14.482;2023-06-10T14:40:49;2.05;;;1.85;;
16531;SDS011;66872;63.142;14.482;2023-06-10T14:43:15;1.88;;;1.73;;
16531;SDS011;66872;63.142;14.482;2023-06-10T14:45:41;1.80;;;1.70;;
16531;SDS011;66872;63.142;14.482;2023-06-10T14:48:07;1.80;;;1.70;;
16531;SDS011;66872;63.142;14.482;2023-06-10T14:50:36;1.80;;;1.70;;
16531;SDS011;66872;63.142;14.482;2023-06-10T14:53:02;1.80;;;1.70;;